Dorothy Gale — WDH5089 — position and weather

sailwx.info

Track history (hours):
 
Tides and Currents Weather Stations Pressure Air Temp Water Temp Dewpoint Dewpoint Depression Visibility Wind Speed Wind Dir Waves Ship Positions

Dorothy Gale

Owner: Lioio, Richard J, Redondo Beach, CA. More information available from US FCC via Universal Licensing System and Coast Guard Vessel Documentation Center.

Last reported at 2018-Jun-25 14:00 UTC. Time now 2018-Jun-25 14:16 UTC.
Position N 34°09' W 119°14'.

Length 14 m.

Type: Sailing vessel. MMSI: 367624420.

Date/timePositionNaut miles runAvg speedWind from/ knotsBaromVisibWave heightAir tempDewpointWater temp
2018-Jun-25 14:00N 34°09' W 119°14'1 0.1
2018-Jun-25 00:07N 34°10' W 119°14'1 4.7
2018-Jun-24 23:59N 34°10' W 119°13'1 2.8
2018-Jun-24 23:30N 34°11' W 119°15'2 5.0
2018-Jun-24 23:00N 34°13' W 119°16'2 4.3
2018-Jun-24 22:30N 34°15' W 119°16'0 0.4
2018-Jun-24 21:56N 34°15' W 119°16'0 0.0
2018-Jun-24 21:26N 34°15' W 119°16'0 0.0
2018-Jun-24 20:56N 34°15' W 119°16'0 0.0
2018-Jun-24 20:29N 34°15' W 119°16'0 0.0
2018-Jun-24 19:59N 34°15' W 119°16'0 0.0
2018-Jun-24 19:29N 34°15' W 119°16'0 0.0
2018-Jun-24 18:59N 34°15' W 119°16'0 0.0
2018-Jun-24 18:29N 34°15' W 119°16'1 2.4
2018-Jun-24 17:58N 34°15' W 119°17'3 5.9
2018-Jun-24 17:29N 34°16' W 119°21'5 4.9
2018-Jun-24 16:30N 34°17' W 119°26'2 4.2
2018-Jun-24 15:57N 34°19' W 119°28'3 4.8
2018-Jun-24 15:22N 34°20' W 119°31'2 4.7
2018-Jun-24 14:52N 34°22' W 119°32'3 5.8
2018-Jun-24 14:20N 34°23' W 119°36'2 5.9
2018-Jun-24 13:58N 34°23' W 119°38'3 6.0
2018-Jun-24 13:30N 34°24' W 119°41'0 0.0
2018-Jun-22 19:52N 34°24' W 119°42'3 2.5
2018-Jun-22 18:48N 34°22' W 119°40'3 7.4
2018-Jun-22 18:25N 34°19' W 119°39'5 7.3
2018-Jun-22 17:45N 34°15' W 119°37'2 7.2
2018-Jun-22 17:25N 34°12' W 119°36'4 7.1
2018-Jun-22 16:52N 34°09' W 119°34'3 7.3
2018-Jun-22 16:26N 34°06' W 119°33'3 7.9
2018-Jun-22 16:00N 34°03' W 119°31'2 0.1
2018-Jun-21 19:39N 34°01' W 119°31'2 6.8
2018-Jun-21 19:22N 34°01' W 119°29'5 6.5
2018-Jun-21 18:36N 33°60' W 119°23'1 6.5
2018-Jun-21 18:30N 33°60' W 119°22'3 6.6
2018-Jun-21 18:00N 33°60' W 119°18'4 7.5
2018-Jun-21 17:30N 33°60' W 119°13'4 7.3
2018-Jun-21 17:00N 33°60' W 119°09'4 7.2
2018-Jun-21 16:29N 33°60' W 119°05'3 7.0
2018-Jun-21 15:59N 33°59' W 119°00'  
Track history (hours):
 
Tides and Currents Weather Stations Pressure Air Temp Water Temp Dewpoint Dewpoint Depression Visibility Wind Speed Wind Dir Waves Ship Positions

Dorothy Gale

Owner: Lioio, Richard J, Redondo Beach, CA. More information available from US FCC via Universal Licensing System and Coast Guard Vessel Documentation Center.

Last reported at 2018-Jun-25 14:00 UTC. Time now 2018-Jun-25 14:16 UTC.
Position N 34°09' W 119°14'.

Length 14 m.

Type: Sailing vessel. MMSI: 367624420.

Date/timePositionNaut miles runAvg speedWind from/ knotsBaromVisibWave heightAir tempDewpointWater temp
2018-Jun-25 14:00N 34°09' W 119°14'1 0.1
2018-Jun-25 00:07N 34°10' W 119°14'1 4.7
2018-Jun-24 23:59N 34°10' W 119°13'1 2.8
2018-Jun-24 23:30N 34°11' W 119°15'2 5.0
2018-Jun-24 23:00N 34°13' W 119°16'2 4.3
2018-Jun-24 22:30N 34°15' W 119°16'0 0.4
2018-Jun-24 21:56N 34°15' W 119°16'0 0.0
2018-Jun-24 21:26N 34°15' W 119°16'0 0.0
2018-Jun-24 20:56N 34°15' W 119°16'0 0.0
2018-Jun-24 20:29N 34°15' W 119°16'0 0.0
2018-Jun-24 19:59N 34°15' W 119°16'0 0.0
2018-Jun-24 19:29N 34°15' W 119°16'0 0.0
2018-Jun-24 18:59N 34°15' W 119°16'0 0.0
2018-Jun-24 18:29N 34°15' W 119°16'1 2.4
2018-Jun-24 17:58N 34°15' W 119°17'3 5.9
2018-Jun-24 17:29N 34°16' W 119°21'5 4.9
2018-Jun-24 16:30N 34°17' W 119°26'2 4.2
2018-Jun-24 15:57N 34°19' W 119°28'3 4.8
2018-Jun-24 15:22N 34°20' W 119°31'2 4.7
2018-Jun-24 14:52N 34°22' W 119°32'3 5.8
2018-Jun-24 14:20N 34°23' W 119°36'2 5.9
2018-Jun-24 13:58N 34°23' W 119°38'3 6.0
2018-Jun-24 13:30N 34°24' W 119°41'0 0.0
2018-Jun-22 19:52N 34°24' W 119°42'3 2.5
2018-Jun-22 18:48N 34°22' W 119°40'3 7.4
2018-Jun-22 18:25N 34°19' W 119°39'5 7.3
2018-Jun-22 17:45N 34°15' W 119°37'2 7.2
2018-Jun-22 17:25N 34°12' W 119°36'4 7.1
2018-Jun-22 16:52N 34°09' W 119°34'3 7.3
2018-Jun-22 16:26N 34°06' W 119°33'3 7.9
2018-Jun-22 16:00N 34°03' W 119°31'2 0.1
2018-Jun-21 19:39N 34°01' W 119°31'2 6.8
2018-Jun-21 19:22N 34°01' W 119°29'5 6.5
2018-Jun-21 18:36N 33°60' W 119°23'1 6.5
2018-Jun-21 18:30N 33°60' W 119°22'3 6.6
2018-Jun-21 18:00N 33°60' W 119°18'4 7.5
2018-Jun-21 17:30N 33°60' W 119°13'4 7.3
2018-Jun-21 17:00N 33°60' W 119°09'4 7.2
2018-Jun-21 16:29N 33°60' W 119°05'3 7.0
2018-Jun-21 15:59N 33°59' W 119°00'  

Dump ship's entire track history